createdAt,value
2024-03-12T00:01:35.657Z,10.30
2024-03-12T00:04:16.141Z,10.30
2024-03-12T00:06:43.251Z,10.30
2024-03-12T00:09:15.697Z,10.30
2024-03-12T00:11:43.529Z,10.30
2024-03-12T00:14:14.999Z,10.20
2024-03-12T00:16:42.337Z,10.20
2024-03-12T00:19:18.343Z,10.20
2024-03-12T00:21:47.858Z,10.20
2024-03-12T00:24:14.708Z,10.10
2024-03-12T00:26:48.616Z,10.10
2024-03-12T00:29:20.258Z,10.10
2024-03-12T00:31:52.471Z,10.10
2024-03-12T00:34:26.704Z,10.10
2024-03-12T00:36:55.600Z,10.00
2024-03-12T00:39:23.122Z,10.00
2024-03-12T00:41:50.065Z,10.00
2024-03-12T00:44:20.883Z,10.00
2024-03-12T00:46:49.170Z,10.00
2024-03-12T00:49:16.232Z,9.90
2024-03-12T00:51:49.918Z,9.90
2024-03-12T00:54:21.552Z,9.90
2024-03-12T00:56:50.818Z,9.80
2024-03-12T00:59:28.383Z,9.80
2024-03-12T01:01:57.474Z,9.80
2024-03-12T01:04:25.071Z,9.80
2024-03-12T01:06:52.867Z,9.80
2024-03-12T01:09:22.602Z,9.80
2024-03-12T01:11:57.281Z,9.70
2024-03-12T01:14:29.404Z,9.70
2024-03-12T01:17:02.155Z,9.70
2024-03-12T01:19:31.214Z,9.70
2024-03-12T01:22:03.153Z,9.70
2024-03-12T01:24:31.075Z,9.70
2024-03-12T01:27:04.123Z,9.60
2024-03-12T01:29:40.543Z,9.60
2024-03-12T01:32:10.480Z,9.60
2024-03-12T01:34:37.827Z,9.70
2024-03-12T01:37:06.588Z,9.60
2024-03-12T01:39:39.597Z,9.60
2024-03-12T01:42:11.514Z,9.70
2024-03-12T01:44:43.538Z,9.70
2024-03-12T01:47:17.522Z,9.70
2024-03-12T01:49:51.734Z,9.70
2024-03-12T01:52:24.105Z,9.80
2024-03-12T01:54:52.187Z,9.80
2024-03-12T01:57:21.845Z,9.80
2024-03-12T01:59:51.819Z,9.80
2024-03-12T02:02:23.668Z,9.80
2024-03-12T02:04:51.494Z,9.80
2024-03-12T02:07:20.903Z,9.80
2024-03-12T02:09:48.290Z,9.80
2024-03-12T02:12:17.459Z,9.90
2024-03-12T02:14:47.488Z,9.80
2024-03-12T02:17:16.952Z,9.80
2024-03-12T02:19:46.438Z,9.80
2024-03-12T02:22:16.197Z,9.80
2024-03-12T02:24:43.394Z,9.80
2024-03-12T02:27:12.823Z,9.80
2024-03-12T02:29:40.983Z,9.80
2024-03-12T02:32:08.170Z,9.80
2024-03-12T02:34:35.230Z,9.80
2024-03-12T02:37:05.955Z,9.80
2024-03-12T02:39:33.392Z,9.80
2024-03-12T02:42:09.712Z,9.80
2024-03-12T02:44:38.096Z,9.70
2024-03-12T02:47:08.105Z,9.70
2024-03-12T02:49:36.788Z,9.70
2024-03-12T02:52:04.833Z,9.70
2024-03-12T02:54:36.294Z,9.70
2024-03-12T02:57:05.271Z,9.70
2024-03-12T02:59:33.205Z,9.70
2024-03-12T03:02:00.329Z,9.70
2024-03-12T03:04:29.783Z,9.80
2024-03-12T03:07:01.354Z,9.80
2024-03-12T03:09:28.411Z,9.80
2024-03-12T03:12:00.889Z,9.80
2024-03-12T03:14:30.229Z,9.90
2024-03-12T03:17:01.647Z,9.90
2024-03-12T03:19:30.600Z,9.90
2024-03-12T03:22:00.361Z,9.90
2024-03-12T03:24:27.390Z,10.00
2024-03-12T03:26:59.726Z,10.00
2024-03-12T03:29:32.407Z,10.00
2024-03-12T03:32:03.746Z,10.10
2024-03-12T03:34:38.488Z,10.10
2024-03-12T03:37:12.340Z,10.10
2024-03-12T03:39:41.563Z,10.10
2024-03-12T03:42:11.187Z,10.20
2024-03-12T03:44:40.777Z,10.20
2024-03-12T03:47:10.144Z,10.20
2024-03-12T03:49:39.716Z,10.20
2024-03-12T03:52:06.850Z,10.20
2024-03-12T03:54:38.624Z,10.30
2024-03-12T03:57:05.885Z,10.20
2024-03-12T03:59:32.926Z,10.30
2024-03-12T04:02:02.263Z,10.30
2024-03-12T04:04:29.746Z,10.30
2024-03-12T04:06:59.176Z,10.30
2024-03-12T04:09:26.792Z,10.30
2024-03-12T04:11:56.001Z,10.30
2024-03-12T04:14:24.199Z,10.40
2024-03-12T04:16:51.085Z,10.40
2024-03-12T04:19:18.775Z,10.30
2024-03-12T04:21:49.386Z,10.40
2024-03-12T04:24:18.840Z,10.40
2024-03-12T04:26:50.465Z,10.40
2024-03-12T04:29:19.468Z,10.40
2024-03-12T04:31:56.232Z,10.40
2024-03-12T04:34:25.575Z,10.50
2024-03-12T04:36:54.964Z,10.50
2024-03-12T04:39:35.688Z,10.50
2024-03-12T04:42:06.210Z,10.50
2024-03-12T04:44:41.333Z,10.50
2024-03-12T04:47:10.826Z,10.50
2024-03-12T04:49:42.174Z,10.50
2024-03-12T04:52:11.398Z,10.60
2024-03-12T04:54:40.536Z,10.60
2024-03-12T04:57:10.198Z,10.60
2024-03-12T04:59:39.651Z,10.60
2024-03-12T05:02:06.577Z,10.60
2024-03-12T05:04:33.494Z,10.60
2024-03-12T05:07:00.523Z,10.60
2024-03-12T05:09:27.509Z,10.60
2024-03-12T05:11:58.967Z,10.60
2024-03-12T05:14:26.228Z,10.60
2024-03-12T05:17:00.084Z,10.60
2024-03-12T05:19:27.215Z,10.60
2024-03-12T05:21:56.759Z,10.60
2024-03-12T05:24:26.347Z,10.60
2024-03-12T05:26:55.614Z,10.60
2024-03-12T05:29:34.437Z,10.70
2024-03-12T05:32:18.260Z,10.70
2024-03-12T05:34:59.629Z,10.70
2024-03-12T05:37:41.717Z,10.70
2024-03-12T05:40:14.426Z,10.60
2024-03-12T05:43:00.117Z,10.70
2024-03-12T05:45:48.136Z,10.70
2024-03-12T05:48:15.040Z,10.70
2024-03-12T05:50:43.025Z,10.70
2024-03-12T05:53:10.283Z,10.70
2024-03-12T05:55:42.574Z,10.70
2024-03-12T05:58:13.476Z,10.70
2024-03-12T06:00:42.978Z,10.80
2024-03-12T06:03:10.585Z,10.80
2024-03-12T06:05:47.151Z,10.80
2024-03-12T06:08:16.772Z,10.80
2024-03-12T06:10:48.608Z,10.80
2024-03-12T06:13:17.882Z,10.80
2024-03-12T06:15:46.959Z,10.80
2024-03-12T06:18:14.791Z,10.90
2024-03-12T06:20:46.903Z,10.80
2024-03-12T06:23:23.518Z,10.80
2024-03-12T06:25:50.743Z,10.80
2024-03-12T06:28:26.893Z,10.80
2024-03-12T06:30:58.772Z,10.80
2024-03-12T06:33:28.571Z,10.80
2024-03-12T06:35:57.716Z,10.80
2024-03-12T06:38:25.494Z,10.80
2024-03-12T06:40:57.080Z,10.90
2024-03-12T06:43:24.100Z,10.90
2024-03-12T06:45:51.084Z,10.90
2024-03-12T06:48:20.691Z,10.90
2024-03-12T06:50:50.953Z,10.90
2024-03-12T06:53:17.938Z,10.90
2024-03-12T06:55:48.101Z,10.90
2024-03-12T06:58:20.016Z,10.90
2024-03-12T07:00:52.256Z,10.90
2024-03-12T07:03:25.505Z,11.00
2024-03-12T07:05:57.584Z,11.00
2024-03-12T07:08:27.231Z,11.00
2024-03-12T07:10:56.772Z,11.00
2024-03-12T07:13:27.480Z,11.00
2024-03-12T07:15:56.910Z,11.00
2024-03-12T07:18:24.332Z,11.00
2024-03-12T07:20:56.395Z,11.10
2024-03-12T07:23:27.155Z,11.00
2024-03-12T07:25:59.986Z,11.10
2024-03-12T07:28:32.020Z,11.10
2024-03-12T07:30:59.250Z,11.10
2024-03-12T07:33:28.499Z,11.10
2024-03-12T07:35:55.506Z,11.10
2024-03-12T07:38:28.727Z,11.10
2024-03-12T07:40:58.099Z,11.20
2024-03-12T07:43:30.978Z,11.20
2024-03-12T07:46:00.393Z,11.30
2024-03-12T07:48:27.457Z,11.30
2024-03-12T07:51:01.920Z,11.30
2024-03-12T07:53:34.649Z,11.40
2024-03-12T07:56:06.266Z,11.40
2024-03-12T07:58:37.281Z,11.40
2024-03-12T08:01:06.712Z,11.50
2024-03-12T08:03:38.181Z,11.50
2024-03-12T08:06:07.818Z,11.50
2024-03-12T08:08:37.215Z,11.50
2024-03-12T08:11:05.994Z,11.50
2024-03-12T08:13:37.218Z,11.60
2024-03-12T08:16:04.452Z,11.60
2024-03-12T08:18:33.941Z,11.60
2024-03-12T08:21:03.474Z,11.60
2024-03-12T08:23:30.354Z,11.70
2024-03-12T08:26:00.736Z,11.70
2024-03-12T08:28:32.370Z,11.80
2024-03-12T08:31:04.486Z,11.80
2024-03-12T08:33:37.840Z,11.80
2024-03-12T08:36:09.156Z,11.90
2024-03-12T08:38:38.397Z,11.90
2024-03-12T08:41:05.582Z,12.00
2024-03-12T08:43:34.998Z,12.00
2024-03-12T08:46:04.789Z,12.00
2024-03-12T08:48:34.729Z,12.10
2024-03-12T08:51:05.580Z,12.10
2024-03-12T08:53:38.230Z,12.20
2024-03-12T08:56:07.940Z,12.20
2024-03-12T08:58:37.190Z,12.30
2024-03-12T09:01:09.660Z,12.40
2024-03-12T09:03:37.342Z,12.40
2024-03-12T09:06:10.970Z,12.40
2024-03-12T09:08:43.784Z,12.50
2024-03-12T09:11:16.490Z,12.50
2024-03-12T09:13:44.336Z,12.50
2024-03-12T09:16:14.673Z,12.60
2024-03-12T09:18:46.851Z,12.60
2024-03-12T09:21:17.662Z,12.60
2024-03-12T09:23:52.783Z,12.70
2024-03-12T09:26:28.807Z,12.70
2024-03-12T09:28:55.798Z,12.80
2024-03-12T09:31:25.156Z,12.80
2024-03-12T09:33:55.261Z,12.80
2024-03-12T09:36:22.773Z,12.90
2024-03-12T09:38:54.519Z,12.90
2024-03-12T09:41:32.704Z,12.90
2024-03-12T09:44:04.254Z,12.90
2024-03-12T09:46:37.685Z,13.00
2024-03-12T09:49:13.639Z,13.00
2024-03-12T09:51:43.451Z,13.00
2024-03-12T09:54:15.215Z,13.00
2024-03-12T09:56:44.624Z,13.00
2024-03-12T09:59:14.610Z,13.00
2024-03-12T10:01:48.590Z,13.00
2024-03-12T10:04:18.572Z,13.00
2024-03-12T10:06:50.350Z,13.00
2024-03-12T10:09:19.620Z,13.00
2024-03-12T10:11:46.553Z,13.00
2024-03-12T10:14:18.574Z,13.00
2024-03-12T10:16:54.080Z,13.00
2024-03-12T10:19:26.691Z,13.00
2024-03-12T10:22:21.933Z,13.00
2024-03-12T10:25:07.208Z,13.00
2024-03-12T10:27:34.227Z,12.90
2024-03-12T10:30:03.300Z,12.90
2024-03-12T10:32:39.441Z,12.90
2024-03-12T10:35:22.922Z,12.90
2024-03-12T10:37:55.132Z,12.80
2024-03-12T10:40:27.240Z,12.80
2024-03-12T10:43:03.065Z,12.80
2024-03-12T10:45:34.003Z,12.80
2024-03-12T10:48:11.969Z,12.80
2024-03-12T10:50:43.484Z,12.70
2024-03-12T10:53:16.090Z,12.70
2024-03-12T10:55:50.819Z,12.70
2024-03-12T10:58:19.672Z,12.80
2024-03-12T11:00:48.864Z,12.80
2024-03-12T11:03:19.064Z,12.90
2024-03-12T11:05:47.372Z,12.90
2024-03-12T11:08:15.271Z,13.00
2024-03-12T11:10:45.060Z,13.10
2024-03-12T11:13:21.401Z,13.10
2024-03-12T11:15:49.010Z,13.20
2024-03-12T11:18:37.116Z,13.30
2024-03-12T11:21:14.639Z,13.40
2024-03-12T11:23:42.081Z,13.60
2024-03-12T11:26:09.771Z,13.70
2024-03-12T11:28:53.394Z,13.80
2024-03-12T11:31:20.883Z,14.00
2024-03-12T11:33:52.645Z,14.20
2024-03-12T11:36:47.474Z,14.30
2024-03-12T11:39:30.241Z,14.40
2024-03-12T11:42:07.232Z,14.60
2024-03-12T11:44:56.662Z,14.70
2024-03-12T11:47:36.359Z,14.70
2024-03-12T11:50:43.574Z,14.70
2024-03-12T11:53:26.967Z,14.80
2024-03-12T11:56:05.681Z,14.70
2024-03-12T11:58:50.522Z,14.80
2024-03-12T12:01:33.878Z,14.80
2024-03-12T12:04:11.794Z,14.90
2024-03-12T12:06:39.348Z,15.00
2024-03-12T12:09:10.530Z,15.20
2024-03-12T12:11:41.593Z,15.40
2024-03-12T12:14:12.060Z,15.60
2024-03-12T12:16:43.034Z,15.80
2024-03-12T12:19:19.204Z,15.90
2024-03-12T12:21:53.047Z,16.00
2024-03-12T12:24:27.480Z,16.00
2024-03-12T12:26:57.002Z,16.00
2024-03-12T12:29:26.524Z,16.00
2024-03-12T12:31:54.383Z,15.90
2024-03-12T12:34:22.709Z,15.90
2024-03-12T12:36:57.074Z,15.90
2024-03-12T12:39:36.524Z,15.90
2024-03-12T12:42:15.691Z,15.90
2024-03-12T12:44:55.621Z,15.80
2024-03-12T12:47:27.091Z,15.80
2024-03-12T12:50:02.001Z,15.70
2024-03-12T12:52:33.526Z,15.70
2024-03-12T12:55:01.746Z,15.70
2024-03-12T12:57:35.681Z,15.60
2024-03-12T13:00:16.331Z,15.60
2024-03-12T13:02:50.232Z,15.50
2024-03-12T13:05:27.242Z,15.40
2024-03-12T13:07:59.369Z,15.40
2024-03-12T13:10:32.817Z,15.30
2024-03-12T13:13:06.772Z,15.20
2024-03-12T13:15:37.173Z,15.20
2024-03-12T13:18:05.728Z,15.10
2024-03-12T13:20:34.189Z,15.00
2024-03-12T13:23:09.687Z,14.90
2024-03-12T13:25:38.619Z,14.80
2024-03-12T13:28:12.296Z,14.70
2024-03-12T13:30:41.448Z,14.60
2024-03-12T13:33:09.760Z,14.60
2024-03-12T13:35:40.342Z,14.60
2024-03-12T13:38:07.223Z,14.50
2024-03-12T13:40:36.354Z,14.50
2024-03-12T13:43:04.705Z,14.40
2024-03-12T13:45:36.425Z,14.40
2024-03-12T13:48:12.926Z,14.30
